createdAt,value
2022-10-02T00:00:09.589Z,101088.50
2022-10-02T00:02:55.619Z,101101.63
2022-10-02T00:05:42.511Z,101101.63
2022-10-02T00:08:42.410Z,101123.16
2022-10-02T00:11:18.588Z,101124.78
2022-10-02T00:14:02.784Z,101125.94
2022-10-02T00:16:39.572Z,101143.59
2022-10-02T00:19:11.473Z,101144.19
2022-10-02T00:21:58.948Z,101139.16
2022-10-02T00:24:41.391Z,101147.66
2022-10-02T00:27:22.400Z,101146.72
2022-10-02T00:29:54.086Z,101146.13
2022-10-02T00:32:46.077Z,101161.03
2022-10-02T00:35:46.244Z,101163.03
2022-10-02T00:38:34.737Z,101162.53
2022-10-02T00:41:17.524Z,101156.34
2022-10-02T00:44:12.373Z,101169.22
2022-10-02T00:46:49.703Z,101169.03
2022-10-02T00:49:26.279Z,101168.97
2022-10-02T00:52:14.783Z,101176.84
2022-10-02T00:55:04.165Z,101173.81
2022-10-02T00:57:45.625Z,101169.66
2022-10-02T01:00:18.797Z,101162.13
2022-10-02T01:03:04.394Z,101160.19
2022-10-02T01:05:34.300Z,101171.59
2022-10-02T01:08:02.381Z,101166.38
2022-10-02T01:10:30.402Z,101161.84
2022-10-02T01:12:58.879Z,101165.19
2022-10-02T01:15:37.592Z,101167.31
2022-10-02T01:18:07.417Z,101177.72
2022-10-02T01:20:42.329Z,101178.47
2022-10-02T01:23:24.995Z,101175.13
2022-10-02T01:25:52.474Z,101172.59
2022-10-02T01:28:20.351Z,101177.25
2022-10-02T01:30:51.479Z,101183.88
2022-10-02T01:33:19.662Z,101174.28
2022-10-02T01:35:47.903Z,101167.69
2022-10-02T01:38:20.473Z,101169.63
2022-10-02T01:40:47.798Z,101173.69
2022-10-02T01:43:20.804Z,101161.47
2022-10-02T01:45:48.110Z,101153.56
2022-10-02T01:48:30.557Z,101149.63
2022-10-02T01:51:30.599Z,101150.25
2022-10-02T01:54:21.345Z,101158.28
2022-10-02T01:57:04.292Z,101151.47
2022-10-02T01:59:31.649Z,101141.72
2022-10-02T02:02:07.838Z,101142.91
2022-10-02T02:04:54.414Z,101151.09
2022-10-02T02:07:28.261Z,101159.50
2022-10-02T02:10:02.445Z,101162.72
2022-10-02T02:12:41.903Z,101170.94
2022-10-02T02:15:36.738Z,101182.69
2022-10-02T02:18:10.520Z,101173.47
2022-10-02T02:20:50.947Z,101178.06
2022-10-02T02:23:22.362Z,101182.59
2022-10-02T02:25:56.854Z,101185.88
2022-10-02T02:28:26.297Z,101182.38
2022-10-02T02:30:55.856Z,101175.78
2022-10-02T02:33:44.799Z,101174.19
2022-10-02T02:36:18.159Z,101184.44
2022-10-02T02:38:51.434Z,101180.91
2022-10-02T02:41:28.765Z,101185.53
2022-10-02T02:44:01.774Z,101190.66
2022-10-02T02:46:59.512Z,101189.94
2022-10-02T02:49:30.296Z,101194.03
2022-10-02T02:52:01.517Z,101192.88
2022-10-02T02:54:46.519Z,101194.94
2022-10-02T02:57:16.239Z,101210.84
2022-10-02T02:59:49.232Z,101206.56
2022-10-02T03:02:16.685Z,101215.28
2022-10-02T03:04:44.081Z,101222.78
2022-10-02T03:07:15.998Z,101216.06
2022-10-02T03:10:12.753Z,101214.97
2022-10-02T03:13:09.425Z,101211.56
2022-10-02T03:16:01.734Z,101220.41
2022-10-02T03:18:43.489Z,101224.13
2022-10-02T03:21:39.837Z,101232.84
2022-10-02T03:24:19.861Z,101239.44
2022-10-02T03:26:55.117Z,101245.38
2022-10-02T03:29:35.763Z,101249.88
2022-10-02T03:32:05.941Z,101249.69
2022-10-02T03:34:34.443Z,101249.69
2022-10-02T03:37:05.142Z,101248.72
2022-10-02T03:39:32.469Z,101241.66
2022-10-02T03:42:00.974Z,101248.53
2022-10-02T03:44:28.328Z,101249.53
2022-10-02T03:46:55.717Z,101257.75
2022-10-02T03:49:23.111Z,101257.75
2022-10-02T03:51:50.447Z,101257.75
2022-10-02T03:54:20.863Z,101269.47
2022-10-02T03:56:58.892Z,101265.50
2022-10-02T03:59:33.901Z,101260.34
2022-10-02T04:02:06.294Z,101260.00
2022-10-02T04:04:48.537Z,101268.22
2022-10-02T04:07:19.402Z,101262.09
2022-10-02T04:10:16.464Z,101267.41
2022-10-02T04:12:49.438Z,101262.38
2022-10-02T04:15:23.322Z,101259.84
2022-10-02T04:17:59.766Z,101281.88
2022-10-02T04:20:35.402Z,101289.91
2022-10-02T04:23:17.774Z,101280.91
2022-10-02T04:25:50.858Z,101282.84
2022-10-02T04:28:26.545Z,101286.53
2022-10-02T04:30:54.262Z,101285.44
2022-10-02T04:33:24.687Z,101292.84
2022-10-02T04:36:03.999Z,101297.34
2022-10-02T04:38:59.258Z,101294.47
2022-10-02T04:41:38.315Z,101307.13
2022-10-02T04:44:35.975Z,101302.81
2022-10-02T04:47:20.856Z,101300.41
2022-10-02T04:50:00.325Z,101304.91
2022-10-02T04:52:34.694Z,101310.38
2022-10-02T04:55:36.419Z,101311.63
2022-10-02T04:58:27.357Z,101322.72
2022-10-02T05:01:12.844Z,101319.38
2022-10-02T05:03:49.260Z,101314.19
2022-10-02T05:06:42.343Z,101311.13
2022-10-02T05:09:13.761Z,101303.94
2022-10-02T05:11:52.862Z,101313.22
2022-10-02T05:14:26.234Z,101318.50
2022-10-02T05:17:03.627Z,101317.41
2022-10-02T05:19:43.159Z,101322.69
2022-10-02T05:22:39.494Z,101316.25
2022-10-02T05:25:24.835Z,101320.44
2022-10-02T05:28:08.831Z,101318.66
2022-10-02T05:31:19.519Z,101320.59
2022-10-02T05:34:29.258Z,101309.34
2022-10-02T05:36:56.526Z,101314.84
2022-10-02T05:39:48.636Z,101316.25
2022-10-02T05:42:26.534Z,101313.53
2022-10-02T05:45:11.707Z,101320.09
2022-10-02T05:47:42.625Z,101316.25
2022-10-02T05:50:26.398Z,101327.78
2022-10-02T05:52:56.248Z,101336.72
2022-10-02T05:55:48.211Z,101335.22
2022-10-02T05:58:19.735Z,101339.38
2022-10-02T06:00:52.280Z,101341.94
2022-10-02T06:03:31.020Z,101345.72
2022-10-02T06:06:11.201Z,101348.13
2022-10-02T06:08:48.704Z,101342.31
2022-10-02T06:11:22.297Z,101337.59
2022-10-02T06:14:12.936Z,101345.66
2022-10-02T06:16:57.383Z,101351.34
2022-10-02T06:19:30.628Z,101356.53
2022-10-02T06:22:07.899Z,101365.41
2022-10-02T06:24:46.492Z,101376.66
2022-10-02T06:27:44.170Z,101376.09
2022-10-02T06:30:17.409Z,101370.56
2022-10-02T06:33:06.820Z,101383.28
2022-10-02T06:35:54.370Z,101384.06
2022-10-02T06:38:40.297Z,101396.72
2022-10-02T06:41:38.279Z,101390.47
2022-10-02T06:44:17.935Z,101387.47
2022-10-02T06:47:01.446Z,101388.81
2022-10-02T06:49:40.561Z,101398.47
2022-10-02T06:52:26.247Z,101411.78
2022-10-02T06:55:15.287Z,101431.66
2022-10-02T06:58:03.609Z,101423.34
2022-10-02T07:00:37.001Z,101419.28
2022-10-02T07:03:23.502Z,101427.41
2022-10-02T07:06:01.789Z,101412.34
2022-10-02T07:08:59.336Z,101422.41
2022-10-02T07:12:08.370Z,101420.13
2022-10-02T07:14:47.816Z,101430.66
2022-10-02T07:17:44.095Z,101433.72
2022-10-02T07:20:34.126Z,101450.91
2022-10-02T07:23:35.174Z,101441.69
2022-10-02T07:26:23.907Z,101422.91
2022-10-02T07:29:20.502Z,101422.09
2022-10-02T07:31:50.787Z,101424.56
2022-10-02T07:34:43.934Z,101424.84
2022-10-02T07:37:30.026Z,101413.81
2022-10-02T07:40:18.596Z,101419.94
2022-10-02T07:42:51.912Z,101430.44
2022-10-02T07:45:41.999Z,101412.16
2022-10-02T07:48:24.306Z,101413.28
2022-10-02T07:51:04.566Z,101422.25
2022-10-02T07:53:40.854Z,101428.75
2022-10-02T07:56:20.115Z,101436.28
2022-10-02T07:58:54.787Z,101418.22
2022-10-02T08:01:26.149Z,101416.56
2022-10-02T08:04:01.201Z,101420.91
2022-10-02T08:06:29.608Z,101413.25
2022-10-02T08:09:03.311Z,101406.66
2022-10-02T08:11:43.290Z,101417.34
2022-10-02T08:14:26.947Z,101410.38
2022-10-02T08:16:57.349Z,101403.19
2022-10-02T08:19:27.932Z,101407.22
2022-10-02T08:22:10.091Z,101405.53
2022-10-02T08:24:59.045Z,101403.84
2022-10-02T08:27:47.790Z,101400.50
2022-10-02T08:30:15.754Z,101400.31
2022-10-02T08:32:44.006Z,101393.56
2022-10-02T08:35:13.117Z,101399.63
2022-10-02T08:38:12.827Z,101393.22
2022-10-02T08:41:05.085Z,101390.00
2022-10-02T08:43:41.694Z,101389.19
2022-10-02T08:46:47.603Z,101386.44
2022-10-02T08:49:35.555Z,101386.00
2022-10-02T08:52:41.007Z,101382.63
2022-10-02T08:55:52.815Z,101388.44
2022-10-02T08:58:22.861Z,101386.84
2022-10-02T09:01:26.414Z,101382.91
2022-10-02T09:04:14.195Z,101380.44
2022-10-02T09:07:15.615Z,101375.63
2022-10-02T09:10:13.647Z,101378.41
2022-10-02T09:12:44.222Z,101365.47
2022-10-02T09:15:16.140Z,101356.63
2022-10-02T09:18:01.656Z,101351.56
2022-10-02T09:20:51.254Z,101350.91
2022-10-02T09:23:40.821Z,101365.69
2022-10-02T09:26:27.027Z,101364.88
2022-10-02T09:29:18.091Z,101361.63
2022-10-02T09:32:05.260Z,101353.44
2022-10-02T09:34:54.369Z,101354.97
2022-10-02T09:37:50.949Z,101347.91
2022-10-02T09:40:33.030Z,101343.38
2022-10-02T09:43:15.471Z,101348.50
2022-10-02T09:45:51.706Z,101341.69
2022-10-02T09:48:49.764Z,101337.19
2022-10-02T09:51:47.610Z,101339.97
2022-10-02T09:54:36.611Z,101341.34
2022-10-02T09:57:22.363Z,101336.75
2022-10-02T10:00:26.713Z,101334.84
2022-10-02T10:03:25.142Z,101330.41
2022-10-02T10:06:30.130Z,101319.53
2022-10-02T10:09:19.310Z,101317.84
2022-10-02T10:12:20.519Z,101320.34
2022-10-02T10:15:20.037Z,101316.75
2022-10-02T10:18:10.394Z,101320.28
2022-10-02T10:21:31.705Z,101325.06
2022-10-02T10:24:19.015Z,101313.75
2022-10-02T10:27:20.187Z,101314.81
2022-10-02T10:30:21.407Z,101312.06
2022-10-02T10:33:16.537Z,101324.28
2022-10-02T10:36:46.898Z,101312.34
2022-10-02T10:39:38.991Z,101307.94
2022-10-02T10:42:56.054Z,101305.53
2022-10-02T10:45:38.942Z,101301.53
2022-10-02T10:48:32.539Z,101298.88
2022-10-02T10:51:35.939Z,101309.66
2022-10-02T10:54:15.711Z,101320.03
2022-10-02T10:57:11.333Z,101302.03
2022-10-02T11:00:01.070Z,101312.81
2022-10-02T11:02:38.819Z,101299.66
2022-10-02T11:05:26.381Z,101300.38
2022-10-02T11:08:09.643Z,101295.25
2022-10-02T11:10:52.967Z,101292.13
2022-10-02T11:13:35.347Z,101295.69
2022-10-02T11:16:28.117Z,101299.81
2022-10-02T11:19:26.597Z,101291.34
2022-10-02T11:22:35.692Z,101279.91
2022-10-02T11:25:12.871Z,101281.88
2022-10-02T11:28:08.221Z,101284.66
2022-10-02T11:31:09.700Z,101282.25
2022-10-02T11:33:56.440Z,101278.75
2022-10-02T11:36:52.637Z,101271.59
2022-10-02T11:39:49.943Z,101262.88
2022-10-02T11:42:54.646Z,101260.22
2022-10-02T11:45:51.698Z,101256.34
2022-10-02T11:49:00.999Z,101254.63
2022-10-02T11:51:41.706Z,101253.13
2022-10-02T11:54:35.621Z,101241.50
2022-10-02T11:57:29.756Z,101239.56
2022-10-02T12:00:04.717Z,101228.41
2022-10-02T12:02:55.523Z,101228.91
2022-10-02T12:05:46.086Z,101221.78
2022-10-02T12:08:34.379Z,101215.84
2022-10-02T12:11:42.142Z,101208.13
2022-10-02T12:14:27.866Z,101215.28
2022-10-02T12:17:22.531Z,101208.63
2022-10-02T12:20:23.411Z,101198.94
2022-10-02T12:23:52.126Z,101199.75
2022-10-02T12:27:13.100Z,101196.75
2022-10-02T12:29:46.253Z,101189.72
2022-10-02T12:32:41.431Z,101181.84
2022-10-02T12:35:27.704Z,101176.34
2022-10-02T12:38:00.975Z,101177.94
2022-10-02T12:40:43.747Z,101162.88
2022-10-02T12:43:17.459Z,101159.53
2022-10-02T12:46:05.191Z,101153.72
2022-10-02T12:48:38.845Z,101154.88
2022-10-02T12:51:24.120Z,101153.97
2022-10-02T12:54:26.512Z,101146.75
2022-10-02T12:56:59.962Z,101155.06
2022-10-02T12:59:59.046Z,101157.06
2022-10-02T13:03:11.674Z,101145.91
2022-10-02T13:05:51.383Z,101139.72
2022-10-02T13:08:24.719Z,101136.03
2022-10-02T13:11:21.105Z,101133.69
2022-10-02T13:14:03.629Z,101126.78
2022-10-02T13:16:31.123Z,101123.88
2022-10-02T13:19:13.595Z,101119.66
2022-10-02T13:22:10.075Z,101110.56
2022-10-02T13:24:49.653Z,101108.78
2022-10-02T13:27:18.778Z,101111.31
2022-10-02T13:30:07.886Z,101110.97
2022-10-02T13:32:41.196Z,101111.44
2022-10-02T13:35:21.004Z,101112.97
2022-10-02T13:38:01.878Z,101104.13
2022-10-02T13:40:58.367Z,101108.59
2022-10-02T13:43:34.558Z,101101.84
2022-10-02T13:46:47.486Z,101095.91
2022-10-02T13:49:48.950Z,101094.59
2022-10-02T13:52:29.294Z,101086.16
2022-10-02T13:55:26.282Z,101090.94
2022-10-02T13:58:10.874Z,101074.84
2022-10-02T14:00:38.174Z,101066.66
2022-10-02T14:03:26.587Z,101059.19
2022-10-02T14:06:21.823Z,101055.66
2022-10-02T14:08:57.898Z,101045.22
2022-10-02T14:11:34.445Z,101045.69
2022-10-02T14:14:14.116Z,101038.28
2022-10-02T14:17:02.312Z,101028.00
2022-10-02T14:19:44.432Z,101030.00
2022-10-02T14:22:17.497Z,101021.88
2022-10-02T14:25:17.286Z,101028.44
2022-10-02T14:27:50.809Z,101031.22
2022-10-02T14:30:22.476Z,101026.94
2022-10-02T14:33:01.591Z,101022.97
2022-10-02T14:35:43.760Z,101020.97
2022-10-02T14:38:23.331Z,101032.75
2022-10-02T14:40:55.776Z,101015.66
2022-10-02T14:44:07.382Z,101019.28
2022-10-02T14:47:01.287Z,101024.19
2022-10-02T14:49:43.923Z,101021.47
2022-10-02T14:52:35.796Z,101027.09
2022-10-02T14:55:15.820Z,101021.13
2022-10-02T14:58:15.231Z,101016.84
2022-10-02T15:01:02.702Z,101016.47
2022-10-02T15:03:52.052Z,101013.66
2022-10-02T15:07:01.559Z,100992.25
2022-10-02T15:09:32.308Z,100998.13
2022-10-02T15:12:10.881Z,100997.72
2022-10-02T15:14:43.594Z,101003.22
2022-10-02T15:17:47.747Z,100995.25
2022-10-02T15:20:24.127Z,100990.06
2022-10-02T15:22:57.862Z,100978.88
2022-10-02T15:25:53.454Z,100986.50
2022-10-02T15:28:40.231Z,100979.84
2022-10-02T15:31:18.030Z,100966.78
2022-10-02T15:34:18.715Z,100970.09
2022-10-02T15:36:57.190Z,100971.19
2022-10-02T15:39:33.651Z,100971.72
2022-10-02T15:42:10.217Z,100964.19
2022-10-02T15:45:00.332Z,100968.53
2022-10-02T15:47:51.655Z,100963.81
2022-10-02T15:50:34.334Z,100960.66
2022-10-02T15:53:17.208Z,100955.91
2022-10-02T15:55:50.730Z,100953.94
2022-10-02T15:58:27.967Z,100963.50
2022-10-02T16:01:01.118Z,100956.72
2022-10-02T16:03:38.212Z,100960.28
2022-10-02T16:06:12.752Z,100954.72
2022-10-02T16:09:09.357Z,100955.16
2022-10-02T16:12:01.524Z,100957.63
2022-10-02T16:14:38.791Z,100952.56
2022-10-02T16:17:21.132Z,100951.75
2022-10-02T16:20:07.114Z,100945.88
2022-10-02T16:22:44.171Z,100941.13
2022-10-02T16:25:27.215Z,100945.09
2022-10-02T16:28:27.320Z,100946.66
2022-10-02T16:31:26.172Z,100929.25
2022-10-02T16:34:19.935Z,100951.03
2022-10-02T16:37:09.131Z,100954.63
2022-10-02T16:39:47.643Z,100946.31
2022-10-02T16:42:27.119Z,100956.19
2022-10-02T16:45:04.882Z,100950.66
2022-10-02T16:48:02.305Z,100954.22
2022-10-02T16:50:48.835Z,100953.00
2022-10-02T16:53:28.662Z,100947.00
2022-10-02T16:56:06.770Z,100954.88
2022-10-02T16:58:47.483Z,100948.94
2022-10-02T17:01:22.435Z,100952.03
2022-10-02T17:04:28.177Z,100952.78
2022-10-02T17:07:14.345Z,100951.53
2022-10-02T17:10:07.947Z,100943.56
2022-10-02T17:12:46.894Z,100948.31
2022-10-02T17:15:27.277Z,100950.22
2022-10-02T17:18:15.972Z,100949.78
2022-10-02T17:21:02.952Z,100947.69
2022-10-02T17:24:19.801Z,100946.06
2022-10-02T17:26:53.645Z,100948.84
2022-10-02T17:29:39.097Z,100957.13
2022-10-02T17:32:09.342Z,100951.97
2022-10-02T17:34:49.880Z,100951.16
2022-10-02T17:37:17.366Z,100955.88
2022-10-02T17:40:03.305Z,100954.19
2022-10-02T17:42:51.976Z,100952.13
2022-10-02T17:45:45.728Z,100950.88
2022-10-02T17:48:21.959Z,100946.94
2022-10-02T17:50:55.870Z,100952.47
2022-10-02T17:54:02.386Z,100954.41
2022-10-02T17:56:32.667Z,100954.88
2022-10-02T17:59:17.209Z,100960.75
2022-10-02T18:02:07.959Z,100959.22
2022-10-02T18:04:49.790Z,100957.44
2022-10-02T18:07:41.624Z,100966.25
2022-10-02T18:10:41.730Z,100960.03
2022-10-02T18:13:21.168Z,100967.94
2022-10-02T18:16:14.259Z,100965.13
2022-10-02T18:19:16.047Z,100966.91
2022-10-02T18:21:56.947Z,100972.78
2022-10-02T18:24:26.870Z,100978.31
2022-10-02T18:27:03.627Z,100984.97
2022-10-02T18:29:49.298Z,100980.22
2022-10-02T18:32:31.620Z,100967.16
2022-10-02T18:35:08.481Z,100972.25
2022-10-02T18:37:50.730Z,100970.09
2022-10-02T18:40:22.966Z,100967.72
2022-10-02T18:43:21.935Z,100967.28
2022-10-02T18:46:27.380Z,100967.03
2022-10-02T18:49:26.040Z,100967.75
2022-10-02T18:52:17.446Z,100970.56
2022-10-02T18:55:10.461Z,100965.66
2022-10-02T18:57:43.588Z,100976.31
2022-10-02T19:00:17.208Z,100967.44
2022-10-02T19:03:18.458Z,100983.13
2022-10-02T19:06:11.512Z,100979.47
2022-10-02T19:09:11.172Z,100973.16
2022-10-02T19:11:48.380Z,100974.88
2022-10-02T19:14:25.814Z,100966.25
2022-10-02T19:16:59.416Z,100969.22
2022-10-02T19:19:28.319Z,100975.06
2022-10-02T19:22:01.354Z,100981.47
2022-10-02T19:24:34.345Z,100974.00
2022-10-02T19:27:09.882Z,100967.44
2022-10-02T19:29:41.889Z,100974.47
2022-10-02T19:32:18.425Z,100978.72
2022-10-02T19:34:50.958Z,100979.03
2022-10-02T19:37:18.998Z,100974.56
2022-10-02T19:39:56.384Z,100987.16
2022-10-02T19:42:29.450Z,100992.19
2022-10-02T19:45:05.402Z,100981.63
2022-10-02T19:48:06.894Z,100986.41
2022-10-02T19:50:40.435Z,101000.25
2022-10-02T19:53:23.025Z,101001.63
2022-10-02T19:56:01.582Z,101000.06
2022-10-02T19:58:59.079Z,101004.00
2022-10-02T20:01:30.139Z,101005.41
2022-10-02T20:04:00.981Z,100998.66
2022-10-02T20:06:35.122Z,101005.31
2022-10-02T20:09:16.878Z,101003.75
2022-10-02T20:11:47.829Z,100999.75
2022-10-02T20:14:17.927Z,101004.84
2022-10-02T20:17:04.457Z,100999.94
2022-10-02T20:19:36.056Z,101008.03
2022-10-02T20:22:34.398Z,101010.00
2022-10-02T20:25:18.977Z,101008.44
2022-10-02T20:27:53.112Z,101010.47
2022-10-02T20:30:22.806Z,101007.72
2022-10-02T20:33:03.084Z,101007.56
2022-10-02T20:35:44.951Z,100999.28
2022-10-02T20:38:24.150Z,101010.03
2022-10-02T20:40:54.582Z,101013.69
2022-10-02T20:43:38.922Z,101016.09
2022-10-02T20:46:33.671Z,101011.81
2022-10-02T20:49:28.417Z,101016.44
2022-10-02T20:52:26.573Z,101010.88
2022-10-02T20:55:12.638Z,101016.53
2022-10-02T20:58:01.408Z,101015.84
2022-10-02T21:00:53.821Z,101005.16
2022-10-02T21:03:24.740Z,101006.44
2022-10-02T21:06:14.473Z,101012.44
2022-10-02T21:09:20.433Z,101017.59
2022-10-02T21:12:12.207Z,101028.94
2022-10-02T21:14:54.601Z,101023.66
2022-10-02T21:18:01.210Z,101017.44
2022-10-02T21:20:49.708Z,101022.31
2022-10-02T21:23:47.064Z,101016.69
2022-10-02T21:26:51.637Z,101030.00
2022-10-02T21:29:47.416Z,101032.13
2022-10-02T21:32:41.026Z,101032.41
2022-10-02T21:35:31.931Z,101037.69
2022-10-02T21:38:36.672Z,101038.59
2022-10-02T21:41:33.522Z,101039.38
2022-10-02T21:44:19.731Z,101032.53
2022-10-02T21:47:12.424Z,101040.09
2022-10-02T21:49:56.250Z,101032.78
2022-10-02T21:52:57.171Z,101039.28
2022-10-02T21:55:33.455Z,101031.84
2022-10-02T21:58:19.263Z,101037.19
2022-10-02T22:01:15.885Z,101038.59
2022-10-02T22:04:13.863Z,101051.00
2022-10-02T22:07:22.616Z,101052.75
2022-10-02T22:09:54.398Z,101050.28
2022-10-02T22:12:27.832Z,101043.53
2022-10-02T22:15:29.629Z,101037.31
2022-10-02T22:18:02.757Z,101045.72
2022-10-02T22:20:59.784Z,101053.97
2022-10-02T22:23:49.918Z,101042.09
2022-10-02T22:26:38.469Z,101045.28
2022-10-02T22:29:27.057Z,101060.28
2022-10-02T22:32:36.275Z,101052.09
2022-10-02T22:35:29.051Z,101054.06
2022-10-02T22:38:34.295Z,101052.84
2022-10-02T22:41:29.914Z,101046.72
2022-10-02T22:44:02.007Z,101047.88
2022-10-02T22:46:51.002Z,101049.19
2022-10-02T22:49:46.375Z,101054.34
2022-10-02T22:52:37.862Z,101052.88
2022-10-02T22:55:23.789Z,101060.22
2022-10-02T22:58:02.555Z,101060.50
2022-10-02T23:00:38.302Z,101045.94
2022-10-02T23:03:37.964Z,101061.59
2022-10-02T23:06:12.621Z,101063.72
2022-10-02T23:08:42.939Z,101066.97
2022-10-02T23:11:17.539Z,101057.50
2022-10-02T23:13:59.865Z,101053.13
2022-10-02T23:16:41.034Z,101061.84
2022-10-02T23:19:14.102Z,101051.25
2022-10-02T23:21:47.907Z,101048.25
2022-10-02T23:24:28.481Z,101043.75
2022-10-02T23:27:09.543Z,101054.41
2022-10-02T23:30:01.080Z,101045.09
2022-10-02T23:33:02.849Z,101046.50
2022-10-02T23:35:49.915Z,101045.09
2022-10-02T23:38:26.305Z,101041.81
2022-10-02T23:41:22.835Z,101038.13
2022-10-02T23:44:28.592Z,101033.41
2022-10-02T23:46:55.947Z,101036.31
2022-10-02T23:49:26.864Z,101034.47
2022-10-02T23:51:54.201Z,101050.34
2022-10-02T23:54:53.626Z,101061.50
2022-10-02T23:57:29.490Z,101049.91
